createdAt,value
2023-05-03T00:02:24.800Z,2.30
2023-05-03T00:04:54.479Z,2.30
2023-05-03T00:07:23.243Z,2.30
2023-05-03T00:09:50.719Z,2.30
2023-05-03T00:12:17.986Z,2.20
2023-05-03T00:14:46.163Z,2.10
2023-05-03T00:17:13.480Z,2.30
2023-05-03T00:19:40.762Z,2.10
2023-05-03T00:22:07.917Z,2.20
2023-05-03T00:24:35.683Z,2.00
2023-05-03T00:27:04.525Z,2.10
2023-05-03T00:29:31.637Z,2.40
2023-05-03T00:32:00.391Z,2.50
2023-05-03T00:34:27.574Z,2.40
2023-05-03T00:36:54.718Z,2.00
2023-05-03T00:39:21.870Z,2.20
2023-05-03T00:41:49.037Z,2.30
2023-05-03T00:44:16.797Z,2.20
2023-05-03T00:46:43.961Z,1.90
2023-05-03T00:49:11.195Z,2.10
2023-05-03T00:51:38.344Z,2.00
2023-05-03T00:54:06.112Z,2.20
2023-05-03T00:56:44.017Z,1.90
2023-05-03T00:59:18.027Z,2.00
2023-05-03T01:01:48.584Z,2.30
2023-05-03T01:04:16.442Z,2.00
2023-05-03T01:07:04.360Z,2.40
2023-05-03T01:09:37.870Z,2.10
2023-05-03T01:12:30.921Z,2.20
2023-05-03T01:15:08.927Z,2.50
2023-05-03T01:17:41.047Z,2.10
2023-05-03T01:20:11.231Z,2.50
2023-05-03T01:22:49.940Z,2.10
2023-05-03T01:25:17.098Z,2.30
2023-05-03T01:27:44.559Z,2.30
2023-05-03T01:30:12.772Z,2.60
2023-05-03T01:33:02.459Z,1.90
2023-05-03T01:35:44.719Z,1.90
2023-05-03T01:38:12.180Z,1.80
2023-05-03T01:40:42.760Z,2.50
2023-05-03T01:43:11.805Z,2.30
2023-05-03T01:45:40.632Z,2.50
2023-05-03T01:48:12.459Z,2.30
2023-05-03T01:50:39.722Z,2.10
2023-05-03T01:53:06.869Z,2.30
2023-05-03T01:55:34.012Z,2.00
2023-05-03T01:58:01.170Z,2.40
2023-05-03T02:00:28.518Z,2.10
2023-05-03T02:02:55.718Z,2.20
2023-05-03T02:05:23.034Z,2.70
2023-05-03T02:07:50.284Z,2.60
2023-05-03T02:10:17.752Z,2.10
2023-05-03T02:12:45.213Z,2.40
2023-05-03T02:15:13.272Z,2.10
2023-05-03T02:17:43.196Z,2.20
2023-05-03T02:20:11.074Z,2.20
2023-05-03T02:22:38.210Z,1.90
2023-05-03T02:25:07.112Z,2.00
2023-05-03T02:27:34.260Z,2.20
2023-05-03T02:30:02.217Z,2.40
2023-05-03T02:32:31.600Z,2.30
2023-05-03T02:34:59.601Z,2.20
2023-05-03T02:37:26.955Z,2.00
2023-05-03T02:39:54.106Z,2.20
2023-05-03T02:42:21.478Z,2.40
2023-05-03T02:44:49.441Z,2.20
2023-05-03T02:47:16.596Z,2.20
2023-05-03T02:49:44.042Z,2.10
2023-05-03T02:52:11.401Z,2.30
2023-05-03T02:54:40.090Z,2.50
2023-05-03T02:57:09.086Z,2.30
2023-05-03T02:59:36.560Z,2.20
2023-05-03T03:02:03.945Z,2.00
2023-05-03T03:04:31.661Z,2.30
2023-05-03T03:06:58.812Z,2.60
2023-05-03T03:09:26.376Z,2.80
2023-05-03T03:11:53.736Z,2.30
2023-05-03T03:14:21.188Z,2.70
2023-05-03T03:16:51.333Z,2.50
2023-05-03T03:19:18.460Z,2.50
2023-05-03T03:21:45.569Z,2.40
2023-05-03T03:24:14.506Z,2.50
2023-05-03T03:26:41.600Z,2.40
2023-05-03T03:29:10.246Z,2.30
2023-05-03T03:31:38.771Z,2.80
2023-05-03T03:34:06.285Z,2.40
2023-05-03T03:36:33.446Z,2.80
2023-05-03T03:39:00.589Z,2.60
2023-05-03T03:41:28.061Z,2.60
2023-05-03T03:43:55.926Z,2.20
2023-05-03T03:46:23.117Z,2.60
2023-05-03T03:48:50.938Z,2.30
2023-05-03T03:51:18.186Z,2.60
2023-05-03T03:53:45.751Z,2.30
2023-05-03T03:56:13.022Z,2.00
2023-05-03T03:58:40.875Z,2.20
2023-05-03T04:01:08.331Z,2.60
2023-05-03T04:03:36.365Z,2.80
2023-05-03T04:06:04.271Z,2.70
2023-05-03T04:08:31.537Z,3.00
2023-05-03T04:10:59.197Z,2.60
2023-05-03T04:13:26.763Z,2.80
2023-05-03T04:15:56.688Z,2.30
2023-05-03T04:18:23.927Z,2.40
2023-05-03T04:20:52.514Z,2.30
2023-05-03T04:23:21.199Z,2.20
2023-05-03T04:25:48.974Z,2.50
2023-05-03T04:28:18.066Z,2.20
2023-05-03T04:30:47.698Z,2.10
2023-05-03T04:33:17.284Z,2.80
2023-05-03T04:35:44.642Z,2.10
2023-05-03T04:38:14.991Z,2.30
2023-05-03T04:40:42.235Z,2.50
2023-05-03T04:43:10.296Z,2.40
2023-05-03T04:45:40.249Z,2.10
2023-05-03T04:48:09.574Z,2.40
2023-05-03T04:50:37.082Z,2.10
2023-05-03T04:53:04.968Z,2.20
2023-05-03T04:55:33.643Z,2.30
2023-05-03T04:58:02.331Z,2.20
2023-05-03T05:00:29.786Z,3.00
2023-05-03T05:03:01.559Z,2.30
2023-05-03T05:05:30.436Z,2.10
2023-05-03T05:07:58.823Z,2.30
2023-05-03T05:10:26.897Z,2.10
2023-05-03T05:12:55.272Z,2.20
2023-05-03T05:15:22.735Z,2.10
2023-05-03T05:17:50.485Z,2.30
2023-05-03T05:20:19.609Z,2.50
2023-05-03T05:25:16.559Z,2.30
2023-05-03T05:27:44.118Z,2.00
2023-05-03T05:30:11.995Z,2.40
2023-05-03T05:32:41.124Z,2.20
2023-05-03T05:35:10.488Z,2.10
2023-05-03T05:37:37.643Z,2.20
2023-05-03T05:40:07.967Z,2.10
2023-05-03T05:42:40.660Z,2.00
2023-05-03T05:45:08.616Z,2.10
2023-05-03T05:47:36.513Z,1.80
2023-05-03T05:50:09.693Z,2.10
2023-05-03T05:52:42.877Z,2.20
2023-05-03T05:55:14.015Z,2.40
2023-05-03T05:57:41.477Z,2.00
2023-05-03T06:00:14.938Z,2.30
2023-05-03T06:02:44.839Z,2.00
2023-05-03T06:05:16.393Z,2.00
2023-05-03T06:07:43.915Z,1.80
2023-05-03T06:10:11.670Z,2.30
2023-05-03T06:14:55.309Z,2.10
2023-05-03T06:17:29.571Z,2.00
2023-05-03T06:19:57.772Z,2.00
2023-05-03T06:22:25.589Z,1.80
2023-05-03T06:24:55.613Z,1.70
2023-05-03T06:27:22.914Z,1.70
2023-05-03T06:29:51.543Z,2.20
2023-05-03T06:32:19.507Z,2.20
2023-05-03T06:34:47.134Z,1.80
2023-05-03T06:37:15.670Z,1.80
2023-05-03T06:39:42.905Z,2.20
2023-05-03T06:42:10.259Z,1.90
2023-05-03T06:44:40.183Z,2.10
2023-05-03T06:47:07.713Z,1.50
2023-05-03T06:49:35.297Z,2.00
2023-05-03T06:52:02.764Z,2.10
2023-05-03T06:54:29.907Z,2.20
2023-05-03T06:56:57.061Z,1.80
2023-05-03T06:59:24.825Z,2.00
2023-05-03T07:01:52.010Z,1.70
2023-05-03T07:04:19.331Z,1.80
2023-05-03T07:06:56.069Z,2.40
2023-05-03T07:09:41.584Z,2.30
2023-05-03T07:12:11.604Z,2.00
2023-05-03T07:14:40.002Z,2.10
2023-05-03T07:17:07.648Z,2.10
2023-05-03T07:19:34.808Z,2.00
2023-05-03T07:22:03.613Z,2.20
2023-05-03T07:24:30.865Z,2.10
2023-05-03T07:26:58.509Z,2.10
2023-05-03T07:29:27.459Z,2.10
2023-05-03T07:31:54.771Z,2.40
2023-05-03T07:34:22.020Z,2.20
2023-05-03T07:36:49.267Z,2.00
2023-05-03T07:39:17.653Z,2.10
2023-05-03T07:41:44.999Z,1.90
2023-05-03T07:44:12.194Z,1.90
2023-05-03T07:46:39.308Z,2.10
2023-05-03T07:49:06.677Z,1.90
2023-05-03T07:51:37.468Z,1.70
2023-05-03T07:54:04.853Z,1.80
2023-05-03T07:56:33.676Z,2.30
2023-05-03T08:03:58.739Z,2.00
2023-05-03T08:06:26.361Z,1.80
2023-05-03T08:08:53.604Z,1.80
2023-05-03T08:11:21.059Z,2.70
2023-05-03T08:13:48.221Z,2.10
2023-05-03T08:16:16.634Z,1.70
2023-05-03T08:18:44.156Z,1.90
2023-05-03T08:21:12.843Z,1.80
2023-05-03T08:23:39.990Z,1.90
2023-05-03T08:26:09.814Z,1.90
2023-05-03T08:28:37.167Z,1.80
2023-05-03T08:31:05.301Z,2.20
2023-05-03T08:33:32.901Z,2.00
2023-05-03T08:36:00.423Z,2.00
2023-05-03T08:38:27.615Z,2.20
2023-05-03T08:40:55.426Z,1.90
2023-05-03T08:43:22.636Z,2.20
2023-05-03T08:45:49.666Z,1.90
2023-05-03T08:48:16.970Z,1.80
2023-05-03T08:50:44.496Z,1.90
2023-05-03T08:53:12.156Z,1.80
2023-05-03T08:55:39.718Z,2.20
2023-05-03T08:58:13.307Z,2.10
2023-05-03T09:00:45.258Z,2.40
2023-05-03T09:03:13.363Z,2.10
2023-05-03T09:05:40.915Z,2.20
2023-05-03T09:08:10.063Z,1.90
2023-05-03T09:10:38.641Z,1.90
2023-05-03T09:13:06.876Z,2.20
2023-05-03T09:15:34.442Z,2.50
2023-05-03T09:18:16.115Z,2.30
2023-05-03T09:20:51.919Z,2.20
2023-05-03T09:23:32.345Z,2.40
2023-05-03T09:26:00.316Z,2.40
2023-05-03T09:28:27.901Z,2.40
2023-05-03T09:31:06.932Z,2.00
2023-05-03T09:33:34.263Z,2.30
2023-05-03T09:36:02.760Z,2.20
2023-05-03T09:38:33.808Z,2.50
2023-05-03T09:41:01.757Z,2.30
2023-05-03T09:43:28.918Z,2.40
2023-05-03T09:46:11.620Z,2.30
2023-05-03T09:48:39.505Z,2.00
2023-05-03T09:51:07.057Z,2.10
2023-05-03T09:53:36.475Z,2.40
2023-05-03T09:56:04.676Z,2.30
2023-05-03T09:58:31.763Z,2.30
2023-05-03T10:00:58.992Z,2.30
2023-05-03T10:03:42.420Z,2.40
2023-05-03T10:06:26.922Z,2.30
2023-05-03T10:09:14.808Z,2.70
2023-05-03T10:11:48.376Z,2.30
2023-05-03T10:14:15.529Z,2.40
2023-05-03T10:16:48.980Z,2.30
2023-05-03T10:19:28.483Z,2.10
2023-05-03T10:22:09.038Z,2.50
2023-05-03T10:24:55.645Z,2.10
2023-05-03T10:27:22.792Z,2.10
2023-05-03T10:29:51.488Z,2.30
2023-05-03T10:32:29.391Z,3.10
2023-05-03T10:35:10.073Z,2.60
2023-05-03T10:37:38.428Z,2.30
2023-05-03T10:40:18.364Z,2.70
2023-05-03T10:42:47.020Z,2.30
2023-05-03T10:45:28.631Z,2.60
2023-05-03T10:48:23.052Z,2.10
2023-05-03T10:50:51.864Z,2.70
2023-05-03T10:53:31.395Z,2.90
2023-05-03T10:56:08.518Z,2.40
2023-05-03T10:58:37.780Z,2.20
2023-05-03T11:01:05.792Z,3.10
2023-05-03T11:03:57.703Z,2.70
2023-05-03T11:06:32.896Z,2.20
2023-05-03T11:09:00.572Z,2.80
2023-05-03T11:11:27.747Z,2.70
2023-05-03T11:13:55.153Z,2.40
2023-05-03T11:16:23.711Z,2.50
2023-05-03T11:18:54.094Z,2.60
2023-05-03T11:21:21.548Z,2.50
2023-05-03T11:23:48.701Z,2.60
2023-05-03T11:26:16.468Z,2.60
2023-05-03T11:28:44.031Z,2.60
2023-05-03T11:31:12.305Z,2.40
2023-05-03T11:33:39.989Z,2.60
2023-05-03T11:36:08.459Z,2.90
2023-05-03T11:38:36.502Z,2.60
2023-05-03T11:41:17.152Z,2.20
2023-05-03T11:43:54.924Z,2.20
2023-05-03T11:46:28.996Z,2.30
2023-05-03T11:48:56.980Z,2.50
2023-05-03T11:51:24.284Z,2.30
2023-05-03T11:53:51.747Z,2.50
2023-05-03T11:56:21.302Z,2.70
2023-05-03T11:58:58.595Z,2.80
2023-05-03T12:01:29.453Z,2.70
2023-05-03T12:04:02.599Z,2.50
2023-05-03T12:06:32.385Z,2.40
2023-05-03T12:09:04.469Z,2.60
2023-05-03T12:11:44.094Z,2.50
2023-05-03T12:14:12.040Z,2.50
2023-05-03T12:16:53.039Z,3.10
2023-05-03T12:19:27.799Z,2.60
2023-05-03T12:22:18.115Z,2.80
2023-05-03T12:24:45.062Z,2.60
2023-05-03T12:27:14.235Z,3.00
2023-05-03T12:29:41.992Z,2.60
2023-05-03T12:32:11.918Z,2.40
2023-05-03T12:34:41.505Z,3.00
2023-05-03T12:37:11.896Z,3.00
2023-05-03T12:39:40.665Z,2.80
2023-05-03T12:42:09.357Z,2.90
2023-05-03T12:44:42.418Z,3.10
2023-05-03T12:47:11.405Z,2.80
2023-05-03T12:49:39.916Z,2.70
2023-05-03T12:52:34.645Z,3.20
2023-05-03T12:54:56.094Z,3.10
2023-05-03T12:57:24.497Z,3.00
2023-05-03T13:00:01.890Z,3.10
2023-05-03T13:05:01.061Z,3.30
2023-05-03T13:07:31.184Z,3.20
2023-05-03T13:12:31.138Z,3.00
2023-05-03T13:14:58.946Z,3.20
2023-05-03T13:17:26.423Z,3.70
2023-05-03T13:19:53.658Z,3.70
2023-05-03T13:22:20.920Z,3.50
2023-05-03T13:24:48.359Z,3.60
2023-05-03T13:27:16.070Z,3.20
2023-05-03T13:29:43.582Z,3.40
2023-05-03T13:32:11.091Z,3.40
2023-05-03T13:34:38.401Z,3.20
2023-05-03T13:37:06.059Z,3.10
2023-05-03T13:39:33.334Z,2.70
2023-05-03T13:42:00.668Z,2.90
2023-05-03T13:44:27.810Z,2.80
2023-05-03T13:46:55.999Z,3.70
2023-05-03T13:49:23.150Z,3.00
2023-05-03T13:51:50.301Z,3.20
2023-05-03T13:54:17.551Z,3.10
2023-05-03T13:56:44.717Z,3.40
2023-05-03T13:59:14.013Z,3.30
2023-05-03T14:01:43.352Z,2.80
2023-05-03T14:04:11.194Z,3.30
2023-05-03T14:06:41.467Z,3.00
2023-05-03T14:09:09.840Z,2.80
2023-05-03T14:11:38.286Z,2.90
2023-05-03T14:14:05.626Z,2.80
2023-05-03T14:16:40.837Z,3.40
2023-05-03T14:19:11.021Z,3.00
2023-05-03T14:21:38.636Z,3.10
2023-05-03T14:24:06.925Z,3.20
2023-05-03T14:26:37.327Z,2.80
2023-05-03T14:29:06.023Z,2.90
2023-05-03T14:31:34.337Z,3.00
2023-05-03T14:34:02.478Z,2.60
2023-05-03T14:36:35.027Z,2.70
2023-05-03T14:39:05.380Z,2.90
2023-05-03T14:41:33.587Z,3.00
2023-05-03T14:44:01.343Z,2.40
2023-05-03T14:46:28.623Z,3.40
2023-05-03T14:48:56.033Z,3.20
2023-05-03T14:51:23.842Z,3.10
2023-05-03T14:53:51.667Z,3.20
2023-05-03T14:56:19.027Z,3.10
2023-05-03T14:58:46.381Z,2.60
2023-05-03T15:01:21.398Z,3.10
2023-05-03T15:03:48.876Z,2.80
2023-05-03T15:06:25.651Z,2.60
2023-05-03T15:08:53.335Z,3.00
2023-05-03T15:11:21.271Z,2.70
2023-05-03T15:13:48.524Z,3.40
2023-05-03T15:16:16.148Z,3.00
2023-05-03T15:18:48.498Z,3.20
2023-05-03T15:21:18.394Z,2.80
2023-05-03T15:23:47.383Z,3.10
2023-05-03T15:26:16.604Z,3.10
2023-05-03T15:28:43.739Z,2.70
2023-05-03T15:31:13.486Z,3.00
2023-05-03T15:36:10.820Z,2.90
2023-05-03T15:38:38.189Z,2.90
2023-05-03T15:41:06.860Z,3.20
2023-05-03T15:43:34.624Z,3.20
2023-05-03T15:46:02.201Z,2.70
2023-05-03T15:48:29.546Z,3.20
2023-05-03T15:50:56.692Z,3.20
2023-05-03T15:53:23.838Z,2.70
2023-05-03T15:55:52.927Z,2.90
2023-05-03T15:58:20.303Z,2.90
2023-05-03T16:00:48.879Z,3.10
2023-05-03T16:03:16.049Z,3.10
2023-05-03T16:05:45.134Z,3.10
2023-05-03T16:08:12.390Z,3.60
2023-05-03T16:10:39.533Z,2.70
2023-05-03T16:13:06.701Z,3.50
2023-05-03T16:15:33.840Z,3.80
2023-05-03T16:18:01.241Z,3.10
2023-05-03T16:20:28.449Z,3.30
2023-05-03T16:22:55.906Z,3.40
2023-05-03T16:25:23.692Z,3.00
2023-05-03T16:27:50.823Z,3.00
2023-05-03T16:30:18.277Z,3.30
2023-05-03T16:32:45.476Z,2.90
2023-05-03T16:35:12.994Z,3.60
2023-05-03T16:37:41.068Z,3.30
2023-05-03T16:40:11.800Z,3.40
2023-05-03T16:42:39.378Z,3.30
2023-05-03T16:45:10.952Z,3.20
2023-05-03T16:47:38.384Z,3.60
2023-05-03T16:50:08.989Z,3.40
2023-05-03T16:52:39.974Z,3.50
2023-05-03T16:55:08.128Z,3.30
2023-05-03T16:57:38.855Z,3.40
2023-05-03T17:00:11.319Z,3.80
2023-05-03T17:02:39.134Z,3.40
2023-05-03T17:05:07.988Z,3.70
2023-05-03T17:07:35.779Z,3.40
2023-05-03T17:10:03.804Z,3.60
2023-05-03T17:12:31.411Z,3.60
2023-05-03T17:14:58.664Z,3.70
2023-05-03T17:17:25.820Z,3.70
2023-05-03T17:19:53.148Z,3.70
2023-05-03T17:22:20.300Z,3.30
2023-05-03T17:24:50.215Z,4.10
2023-05-03T17:29:44.516Z,3.90
2023-05-03T17:32:11.666Z,3.90
2023-05-03T17:34:38.821Z,3.60
2023-05-03T17:37:05.978Z,3.60
2023-05-03T17:39:33.781Z,3.70
2023-05-03T17:42:01.089Z,3.40
2023-05-03T17:44:28.242Z,3.30
2023-05-03T17:46:55.394Z,3.80
2023-05-03T17:49:22.547Z,3.90
2023-05-03T17:51:49.703Z,3.60
2023-05-03T17:54:16.849Z,3.80
2023-05-03T17:56:45.117Z,4.40
2023-05-03T17:59:12.276Z,4.00
2023-05-03T18:01:39.475Z,4.10
2023-05-03T18:04:06.706Z,4.00
2023-05-03T18:06:34.180Z,3.80
2023-05-03T18:09:01.297Z,3.70
2023-05-03T18:11:28.445Z,3.60
2023-05-03T18:13:55.600Z,4.00
2023-05-03T18:16:23.319Z,4.10
2023-05-03T18:18:50.516Z,3.90
2023-05-03T18:21:18.891Z,4.30
2023-05-03T18:23:46.456Z,4.00
2023-05-03T18:26:13.609Z,4.10
2023-05-03T18:28:40.756Z,4.40
2023-05-03T18:32:15.907Z,3.90
2023-05-03T18:34:43.267Z,4.50
2023-05-03T18:37:11.026Z,3.80
2023-05-03T18:39:38.180Z,4.30
2023-05-03T18:42:05.333Z,3.70
2023-05-03T18:44:32.691Z,4.00
2023-05-03T18:46:59.884Z,4.50
2023-05-03T18:49:27.194Z,4.20
2023-05-03T18:51:54.348Z,4.30
2023-05-03T18:54:21.409Z,4.60
2023-05-03T18:56:48.549Z,4.50
2023-05-03T18:59:15.701Z,4.90
2023-05-03T19:01:43.078Z,4.20
2023-05-03T19:04:10.253Z,4.10
2023-05-03T19:06:37.460Z,4.40
2023-05-03T19:09:04.735Z,3.80
2023-05-03T19:11:31.873Z,4.00
2023-05-03T19:13:59.031Z,4.10
2023-05-03T19:16:26.525Z,4.00
2023-05-03T19:18:56.190Z,4.20
2023-05-03T19:21:23.345Z,4.50
2023-05-03T19:23:50.605Z,4.20
2023-05-03T19:26:17.851Z,4.30
2023-05-03T19:28:45.206Z,4.10
2023-05-03T19:31:12.845Z,4.80
2023-05-03T19:33:41.366Z,4.50
2023-05-03T19:36:12.540Z,4.70
2023-05-03T19:38:39.650Z,4.00
2023-05-03T19:41:12.092Z,4.40
2023-05-03T19:43:40.127Z,4.40
2023-05-03T19:46:07.675Z,4.50
2023-05-03T19:48:35.146Z,4.20
2023-05-03T19:51:02.884Z,3.80
2023-05-03T19:53:29.960Z,4.50
2023-05-03T19:56:01.401Z,4.10
2023-05-03T19:58:28.899Z,3.70
2023-05-03T20:00:57.990Z,3.60
2023-05-03T20:03:25.307Z,3.80
2023-05-03T20:05:52.972Z,3.60
2023-05-03T20:08:20.117Z,3.50
2023-05-03T20:10:47.372Z,3.30
2023-05-03T20:13:14.572Z,3.90
2023-05-03T20:15:42.229Z,3.80
2023-05-03T20:18:09.365Z,3.60
2023-05-03T20:20:36.900Z,3.80
2023-05-03T20:23:03.974Z,3.50
2023-05-03T20:25:31.200Z,3.30
2023-05-03T20:27:58.353Z,3.20
2023-05-03T20:30:25.501Z,3.50
2023-05-03T20:32:52.787Z,3.20
2023-05-03T20:35:20.422Z,3.90
2023-05-03T20:37:47.578Z,3.30
2023-05-03T20:40:14.731Z,3.50
2023-05-03T20:42:41.886Z,3.50
2023-05-03T20:45:09.736Z,3.30
2023-05-03T20:47:36.939Z,3.00
2023-05-03T20:50:04.778Z,2.70
2023-05-03T20:52:31.962Z,3.30
2023-05-03T20:54:59.393Z,3.00
2023-05-03T20:57:26.532Z,3.30
2023-05-03T20:59:55.528Z,2.80
2023-05-03T21:02:22.772Z,3.10
2023-05-03T21:04:50.156Z,3.10
2023-05-03T21:07:17.296Z,2.40
2023-05-03T21:09:44.443Z,2.70
2023-05-03T21:12:11.594Z,2.60
2023-05-03T21:14:38.748Z,3.10
2023-05-03T21:17:07.334Z,2.80
2023-05-03T21:19:34.706Z,2.50
2023-05-03T21:22:02.057Z,2.80
2023-05-03T21:24:31.249Z,2.40
2023-05-03T21:26:59.119Z,2.90
2023-05-03T21:29:26.173Z,2.40
2023-05-03T21:31:53.348Z,2.50
2023-05-03T21:34:20.488Z,2.40
2023-05-03T21:36:47.635Z,2.30
2023-05-03T21:39:15.499Z,2.60
2023-05-03T21:41:43.985Z,2.50
2023-05-03T21:44:12.261Z,2.80
2023-05-03T21:46:43.059Z,2.60
2023-05-03T21:49:10.260Z,2.00
2023-05-03T21:51:37.418Z,2.60
2023-05-03T21:54:05.083Z,2.30
2023-05-03T21:56:32.436Z,2.80
2023-05-03T21:58:59.891Z,2.90
2023-05-03T22:01:27.114Z,2.60
2023-05-03T22:03:54.484Z,2.20
2023-05-03T22:06:22.177Z,2.50
2023-05-03T22:08:49.726Z,2.50
2023-05-03T22:11:16.786Z,2.30
2023-05-03T22:13:58.718Z,2.60
2023-05-03T22:16:30.888Z,2.70
2023-05-03T22:18:58.740Z,2.50
2023-05-03T22:21:25.876Z,3.00
2023-05-03T22:23:53.022Z,2.70
2023-05-03T22:26:20.191Z,2.60
2023-05-03T22:28:47.338Z,2.70
2023-05-03T22:31:14.527Z,2.60
2023-05-03T22:33:45.094Z,2.60
2023-05-03T22:36:12.684Z,2.80
2023-05-03T22:38:42.633Z,3.20
2023-05-03T22:41:10.302Z,3.10
2023-05-03T22:43:37.523Z,3.30
2023-05-03T22:46:04.913Z,3.00
2023-05-03T22:48:34.289Z,2.50
2023-05-03T22:51:01.434Z,2.70
2023-05-03T22:53:28.692Z,2.80
2023-05-03T22:55:59.336Z,2.90
2023-05-03T22:58:26.695Z,2.70
2023-05-03T23:00:54.201Z,2.80
2023-05-03T23:03:22.569Z,2.40
2023-05-03T23:05:51.862Z,2.40
2023-05-03T23:08:19.233Z,2.70
2023-05-03T23:10:46.757Z,2.60
2023-05-03T23:13:13.937Z,2.80
2023-05-03T23:15:41.173Z,2.90
2023-05-03T23:18:08.624Z,3.20
2023-05-03T23:20:35.880Z,2.50
2023-05-03T23:23:03.037Z,2.60
2023-05-03T23:25:30.193Z,2.70
2023-05-03T23:27:57.351Z,2.70
2023-05-03T23:30:25.006Z,2.80
2023-05-03T23:32:52.799Z,2.90
2023-05-03T23:35:20.644Z,2.90
2023-05-03T23:37:47.804Z,3.00
2023-05-03T23:40:15.152Z,3.00
2023-05-03T23:42:43.640Z,3.20
2023-05-03T23:45:11.369Z,2.90
2023-05-03T23:47:38.644Z,3.20
2023-05-03T23:50:07.024Z,3.20
2023-05-03T23:52:34.606Z,3.20
2023-05-03T23:55:01.885Z,3.60
2023-05-03T23:57:29.111Z,3.40
2023-05-03T23:59:56.472Z,3.40
